createdAt,value
2023-04-09T00:00:17.117Z,86.09
2023-04-09T00:02:48.588Z,85.87
2023-04-09T00:05:19.984Z,85.97
2023-04-09T00:07:51.403Z,85.84
2023-04-09T00:10:23.128Z,86.19
2023-04-09T00:12:54.490Z,85.91
2023-04-09T00:15:31.151Z,85.94
2023-04-09T00:18:03.408Z,86.01
2023-04-09T00:20:35.084Z,85.95
2023-04-09T00:23:06.562Z,86.06
2023-04-09T00:25:38.004Z,85.92
2023-04-09T00:28:09.421Z,85.37
2023-04-09T00:30:40.770Z,85.56
2023-04-09T00:33:12.110Z,85.77
2023-04-09T00:35:43.533Z,85.48
2023-04-09T00:38:14.877Z,85.34
2023-04-09T00:40:49.843Z,85.85
2023-04-09T00:43:21.757Z,85.31
2023-04-09T00:45:53.276Z,85.20
2023-04-09T00:48:24.855Z,85.30
2023-04-09T00:50:56.519Z,85.59
2023-04-09T00:53:28.428Z,84.98
2023-04-09T00:56:00.157Z,85.16
2023-04-09T00:58:31.661Z,85.17
2023-04-09T01:01:03.636Z,85.56
2023-04-09T01:03:35.868Z,85.40
2023-04-09T01:06:27.851Z,85.41
2023-04-09T01:09:06.275Z,84.81
2023-04-09T01:11:40.314Z,85.50
2023-04-09T01:14:27.478Z,85.34
2023-04-09T01:17:06.191Z,85.25
2023-04-09T01:20:01.683Z,85.07
2023-04-09T01:23:01.075Z,85.09
2023-04-09T01:25:44.885Z,84.74
2023-04-09T01:28:19.603Z,84.94
2023-04-09T01:30:56.077Z,85.24
2023-04-09T01:33:30.860Z,84.93
2023-04-09T01:36:04.525Z,84.60
2023-04-09T01:38:37.677Z,84.78
2023-04-09T01:41:17.252Z,85.03
2023-04-09T01:43:52.279Z,85.08
2023-04-09T01:46:25.259Z,85.26
2023-04-09T01:48:57.209Z,84.77
2023-04-09T01:51:29.716Z,85.18
2023-04-09T01:54:01.193Z,85.39
2023-04-09T01:56:48.191Z,85.86
2023-04-09T01:59:19.548Z,85.13
2023-04-09T02:02:00.290Z,85.36
2023-04-09T02:04:42.924Z,85.30
2023-04-09T02:07:50.754Z,85.12
2023-04-09T02:10:26.819Z,85.33
2023-04-09T02:13:01.370Z,85.52
2023-04-09T02:15:36.498Z,85.04
2023-04-09T02:18:21.436Z,85.25
2023-04-09T02:20:53.955Z,85.12
2023-04-09T02:23:27.295Z,85.41
2023-04-09T02:25:58.909Z,85.33
2023-04-09T02:28:30.237Z,85.10
2023-04-09T02:31:01.552Z,85.15
2023-04-09T02:33:32.991Z,85.02
2023-04-09T02:36:05.260Z,85.53
2023-04-09T02:38:36.645Z,85.31
2023-04-09T02:41:08.241Z,85.13
2023-04-09T02:43:39.630Z,85.08
2023-04-09T02:46:11.044Z,85.47
2023-04-09T02:48:42.393Z,85.41
2023-04-09T02:51:13.712Z,84.99
2023-04-09T02:53:45.562Z,84.81
2023-04-09T02:56:16.906Z,85.03
2023-04-09T02:58:51.746Z,84.95
2023-04-09T03:01:23.575Z,85.04
2023-04-09T03:03:55.174Z,85.07
2023-04-09T03:06:26.995Z,84.92
2023-04-09T03:08:58.348Z,85.02
2023-04-09T03:11:29.760Z,84.82
2023-04-09T03:14:01.074Z,84.66
2023-04-09T03:16:32.438Z,84.69
2023-04-09T03:19:03.905Z,84.66
2023-04-09T03:21:35.521Z,84.73
2023-04-09T03:24:07.240Z,84.61
2023-04-09T03:26:38.616Z,84.80
2023-04-09T03:29:10.184Z,84.81
2023-04-09T03:31:41.567Z,84.90
2023-04-09T03:34:12.983Z,84.56
2023-04-09T03:36:44.342Z,85.15
2023-04-09T03:39:15.833Z,84.86
2023-04-09T03:41:47.271Z,84.52
2023-04-09T03:44:18.666Z,84.96
2023-04-09T03:46:50.447Z,84.81
2023-04-09T03:49:21.932Z,84.51
2023-04-09T03:51:53.413Z,84.74
2023-04-09T03:54:24.746Z,84.79
2023-04-09T03:56:56.421Z,84.78
2023-04-09T03:59:27.833Z,84.10
2023-04-09T04:01:59.282Z,84.60
2023-04-09T04:04:30.894Z,84.72
2023-04-09T04:07:03.813Z,84.63
2023-04-09T04:09:35.404Z,84.63
2023-04-09T04:12:06.937Z,84.30
2023-04-09T04:14:38.312Z,84.53
2023-04-09T04:17:10.532Z,84.60
2023-04-09T04:19:42.015Z,84.83
2023-04-09T04:22:13.425Z,84.64
2023-04-09T04:24:44.730Z,84.95
2023-04-09T04:27:16.228Z,84.74
2023-04-09T04:29:47.609Z,84.70
2023-04-09T04:32:18.998Z,84.93
2023-04-09T04:34:51.486Z,84.78
2023-04-09T04:37:22.913Z,84.69
2023-04-09T04:39:54.378Z,84.93
2023-04-09T04:42:25.806Z,84.52
2023-04-09T04:44:57.483Z,84.79
2023-04-09T04:47:28.901Z,84.92
2023-04-09T04:50:00.401Z,84.39
2023-04-09T04:52:31.706Z,84.47
2023-04-09T04:55:03.179Z,84.41
2023-04-09T04:57:34.510Z,84.89
2023-04-09T05:00:06.598Z,84.40
2023-04-09T05:02:38.128Z,84.36
2023-04-09T05:05:09.869Z,84.64
2023-04-09T05:07:41.604Z,84.54
2023-04-09T05:10:13.276Z,84.65
2023-04-09T05:12:44.659Z,84.48
2023-04-09T05:15:17.239Z,84.45
2023-04-09T05:17:48.950Z,84.40
2023-04-09T05:20:20.493Z,84.41
2023-04-09T05:22:52.345Z,84.53
2023-04-09T05:25:23.750Z,84.69
2023-04-09T05:27:56.144Z,83.96
2023-04-09T05:30:27.507Z,84.36
2023-04-09T05:32:59.440Z,84.36
2023-04-09T05:35:30.914Z,83.94
2023-04-09T05:38:02.314Z,84.37
2023-04-09T05:40:34.102Z,83.69
2023-04-09T05:43:06.078Z,83.62
2023-04-09T05:45:38.085Z,83.93
2023-04-09T05:48:10.576Z,83.64
2023-04-09T05:50:53.893Z,83.54
2023-04-09T05:53:26.403Z,83.69
2023-04-09T05:55:57.868Z,83.36
2023-04-09T05:58:29.643Z,83.65
2023-04-09T06:01:01.004Z,83.15
2023-04-09T06:03:32.462Z,83.61
2023-04-09T06:06:04.286Z,83.35
2023-04-09T06:08:35.815Z,83.15
2023-04-09T06:11:10.725Z,83.79
2023-04-09T06:13:42.071Z,82.95
2023-04-09T06:16:13.570Z,83.30
2023-04-09T06:18:46.817Z,83.08
2023-04-09T06:21:18.175Z,83.08
2023-04-09T06:23:50.140Z,82.89
2023-04-09T06:26:21.909Z,82.08
2023-04-09T06:28:54.026Z,82.09
2023-04-09T06:31:25.696Z,81.32
2023-04-09T06:33:57.351Z,81.67
2023-04-09T06:36:28.824Z,81.06
2023-04-09T06:39:00.268Z,80.77
2023-04-09T06:41:32.565Z,81.36
2023-04-09T06:44:04.199Z,81.05
2023-04-09T06:46:35.617Z,80.96
2023-04-09T06:49:07.060Z,80.96
2023-04-09T06:51:38.551Z,80.36
2023-04-09T06:54:10.211Z,80.80
2023-04-09T06:56:41.519Z,80.49
2023-04-09T06:59:13.753Z,80.28
2023-04-09T07:01:45.551Z,80.35
2023-04-09T07:04:17.159Z,79.92
2023-04-09T07:06:48.627Z,80.55
2023-04-09T07:09:20.394Z,80.25
2023-04-09T07:11:51.851Z,80.22
2023-04-09T07:14:23.207Z,79.38
2023-04-09T07:16:54.542Z,79.28
2023-04-09T07:19:26.826Z,79.20
2023-04-09T07:21:58.247Z,77.83
2023-04-09T07:24:29.665Z,77.12
2023-04-09T07:27:04.390Z,76.58
2023-04-09T07:29:36.694Z,76.58
2023-04-09T07:32:08.068Z,76.28
2023-04-09T07:34:40.609Z,76.31
2023-04-09T07:37:12.624Z,76.28
2023-04-09T07:39:44.341Z,76.11
2023-04-09T07:42:16.029Z,76.40
2023-04-09T07:44:47.505Z,76.07
2023-04-09T07:47:18.913Z,76.12
2023-04-09T07:49:50.457Z,75.40
2023-04-09T07:52:21.872Z,75.21
2023-04-09T07:54:53.234Z,74.71
2023-04-09T07:57:24.694Z,74.35
2023-04-09T07:59:56.793Z,73.29
2023-04-09T08:02:28.275Z,73.51
2023-04-09T08:04:59.987Z,72.99
2023-04-09T08:07:31.553Z,73.01
2023-04-09T08:10:03.061Z,72.61
2023-04-09T08:12:34.436Z,72.26
2023-04-09T08:15:06.484Z,72.73
2023-04-09T08:17:37.983Z,72.64
2023-04-09T08:20:10.384Z,71.99
2023-04-09T08:22:42.345Z,71.22
2023-04-09T08:25:14.797Z,70.93
2023-04-09T08:27:46.419Z,70.84
2023-04-09T08:30:18.888Z,70.30
2023-04-09T08:32:50.439Z,70.05
2023-04-09T08:35:21.824Z,69.69
2023-04-09T08:37:53.441Z,69.52
2023-04-09T08:40:24.964Z,69.56
2023-04-09T08:42:57.027Z,70.10
2023-04-09T08:45:28.456Z,70.10
2023-04-09T08:48:00.744Z,69.82
2023-04-09T08:50:34.314Z,69.85
2023-04-09T08:53:08.122Z,69.94
2023-04-09T08:55:40.019Z,69.78
2023-04-09T08:58:11.507Z,69.79
2023-04-09T09:00:42.937Z,69.95
2023-04-09T09:03:14.505Z,69.89
2023-04-09T09:05:46.380Z,69.59
2023-04-09T09:08:25.396Z,69.35
2023-04-09T09:10:57.369Z,69.05
2023-04-09T09:13:28.739Z,69.03
2023-04-09T09:16:14.377Z,67.95
2023-04-09T09:18:46.150Z,68.46
2023-04-09T09:21:19.641Z,68.30
2023-04-09T09:23:51.262Z,68.11
2023-04-09T09:26:30.099Z,67.99
2023-04-09T09:29:04.128Z,67.75
2023-04-09T09:31:50.087Z,67.20
2023-04-09T09:34:24.573Z,67.05
2023-04-09T09:36:56.152Z,66.60
2023-04-09T09:39:43.815Z,65.66
2023-04-09T09:42:15.666Z,65.75
2023-04-09T09:44:47.882Z,65.75
2023-04-09T09:47:22.020Z,65.81
2023-04-09T09:49:54.570Z,65.57
2023-04-09T09:52:30.181Z,64.59
2023-04-09T09:55:05.701Z,64.46
2023-04-09T09:57:39.467Z,64.16
2023-04-09T10:00:13.425Z,63.97
2023-04-09T10:02:51.229Z,63.79
2023-04-09T10:05:26.775Z,63.26
2023-04-09T10:08:00.361Z,63.11
2023-04-09T10:10:33.523Z,62.78
2023-04-09T10:13:07.624Z,62.43
2023-04-09T10:15:40.093Z,62.38
2023-04-09T10:18:12.004Z,62.09
2023-04-09T10:20:52.092Z,61.35
2023-04-09T10:23:49.404Z,60.82
2023-04-09T10:26:22.205Z,61.63
2023-04-09T10:29:08.253Z,60.95
2023-04-09T10:31:48.455Z,61.04
2023-04-09T10:34:24.591Z,61.11
2023-04-09T10:36:57.792Z,60.22
2023-04-09T10:39:32.037Z,60.05
2023-04-09T10:42:11.419Z,60.00
2023-04-09T10:44:42.865Z,59.93
2023-04-09T10:47:32.590Z,59.05
2023-04-09T10:50:21.221Z,59.33
2023-04-09T10:53:00.664Z,59.41
2023-04-09T10:55:35.280Z,59.18
2023-04-09T10:58:13.262Z,58.53
2023-04-09T11:00:48.852Z,59.00
2023-04-09T11:03:26.200Z,59.32
2023-04-09T11:06:05.729Z,59.02
2023-04-09T11:08:38.544Z,58.38
2023-04-09T11:11:11.554Z,58.33
2023-04-09T11:13:43.210Z,58.53
2023-04-09T11:16:23.269Z,58.55
2023-04-09T11:18:57.402Z,58.25
2023-04-09T11:21:28.817Z,58.18
2023-04-09T11:24:00.262Z,57.70
2023-04-09T11:26:36.198Z,57.48
2023-04-09T11:29:09.104Z,57.47
2023-04-09T11:31:44.239Z,57.18
2023-04-09T11:34:15.883Z,57.22
2023-04-09T11:36:49.451Z,57.19
2023-04-09T11:39:21.053Z,57.14
2023-04-09T11:41:52.972Z,56.88
2023-04-09T11:44:24.440Z,56.98
2023-04-09T11:46:56.316Z,56.53
2023-04-09T11:49:27.848Z,56.43
2023-04-09T11:52:01.797Z,55.89
2023-04-09T11:54:34.268Z,56.25
2023-04-09T11:57:06.725Z,56.36
2023-04-09T11:59:39.620Z,56.46
2023-04-09T12:02:11.030Z,55.60
2023-04-09T12:04:50.641Z,55.37
2023-04-09T12:07:22.170Z,55.27
2023-04-09T12:09:53.661Z,54.96
2023-04-09T12:12:25.726Z,55.23
2023-04-09T12:14:58.882Z,54.38
2023-04-09T12:17:32.508Z,54.38
2023-04-09T12:20:04.175Z,54.19
2023-04-09T12:22:38.539Z,54.40
2023-04-09T12:25:09.886Z,54.25
2023-04-09T12:27:41.602Z,54.22
2023-04-09T12:30:13.079Z,53.80
2023-04-09T12:32:45.922Z,54.54
2023-04-09T12:35:17.564Z,53.71
2023-04-09T12:37:50.717Z,53.27
2023-04-09T12:40:22.970Z,52.97
2023-04-09T12:42:54.474Z,52.52
2023-04-09T12:45:26.227Z,52.66
2023-04-09T12:47:58.146Z,52.14
2023-04-09T12:50:29.676Z,52.46
2023-04-09T12:53:01.336Z,53.34
2023-04-09T12:55:32.899Z,53.16
2023-04-09T12:58:04.316Z,52.97
2023-04-09T13:00:35.849Z,53.31
2023-04-09T13:03:07.502Z,53.40
2023-04-09T13:05:38.986Z,53.21
2023-04-09T13:08:10.445Z,53.70
2023-04-09T13:10:42.244Z,53.15
2023-04-09T13:13:13.853Z,53.15
2023-04-09T13:15:45.291Z,53.41
2023-04-09T13:18:16.915Z,53.65
2023-04-09T13:20:48.342Z,53.25
2023-04-09T13:23:19.836Z,53.69
2023-04-09T13:25:52.416Z,53.00
2023-04-09T13:28:23.875Z,52.92
2023-04-09T13:30:55.595Z,52.75
2023-04-09T13:33:26.985Z,52.61
2023-04-09T13:35:58.648Z,52.61
2023-04-09T13:38:30.045Z,52.39
2023-04-09T13:41:01.629Z,52.10
2023-04-09T13:43:33.013Z,51.58
2023-04-09T13:46:04.919Z,51.57
2023-04-09T13:48:36.433Z,51.38
2023-04-09T13:51:08.157Z,51.12
2023-04-09T13:53:39.602Z,51.14
2023-04-09T13:56:11.059Z,51.68
2023-04-09T13:58:43.670Z,50.81
2023-04-09T14:01:15.740Z,50.56
2023-04-09T14:03:47.360Z,50.58
2023-04-09T14:06:19.862Z,50.21
2023-04-09T14:08:51.489Z,49.99
2023-04-09T14:11:23.125Z,50.39
2023-04-09T14:13:55.702Z,50.16
2023-04-09T14:16:28.250Z,50.34
2023-04-09T14:18:59.887Z,50.33
2023-04-09T14:21:31.902Z,50.88
2023-04-09T14:24:03.347Z,51.26
2023-04-09T14:26:34.716Z,51.42
2023-04-09T14:29:06.485Z,51.33
2023-04-09T14:31:37.891Z,51.10
2023-04-09T14:34:09.337Z,50.67
2023-04-09T14:36:40.754Z,51.00
2023-04-09T14:39:12.229Z,50.90
2023-04-09T14:41:43.878Z,50.86
2023-04-09T14:44:15.513Z,50.92
2023-04-09T14:46:46.974Z,50.75
2023-04-09T14:49:18.392Z,50.22
2023-04-09T14:51:49.994Z,50.87
2023-04-09T14:54:22.371Z,50.27
2023-04-09T14:56:53.730Z,50.09
2023-04-09T14:59:26.051Z,49.98
2023-04-09T15:01:57.542Z,49.24
2023-04-09T15:04:29.166Z,48.91
2023-04-09T15:07:00.989Z,48.42
2023-04-09T15:09:34.001Z,48.49
2023-04-09T15:12:05.485Z,48.80
2023-04-09T15:14:36.881Z,49.32
2023-04-09T15:17:08.500Z,49.31
2023-04-09T15:19:39.900Z,49.55
2023-04-09T15:22:11.335Z,49.61
2023-04-09T15:24:42.969Z,49.68
2023-04-09T15:27:14.449Z,49.76
2023-04-09T15:29:45.990Z,49.80
2023-04-09T15:32:17.535Z,49.63
2023-04-09T15:34:48.985Z,49.33
2023-04-09T15:37:20.463Z,49.54
2023-04-09T15:39:52.034Z,49.38
2023-04-09T15:42:24.448Z,49.30
2023-04-09T15:44:56.137Z,49.29
2023-04-09T15:47:27.579Z,49.54
2023-04-09T15:49:59.193Z,49.57
2023-04-09T15:52:30.708Z,49.65
2023-04-09T15:55:02.235Z,48.83
2023-04-09T15:57:33.635Z,49.09
2023-04-09T16:00:08.169Z,48.72
2023-04-09T16:02:41.012Z,48.57
2023-04-09T16:05:12.585Z,48.73
2023-04-09T16:07:44.150Z,49.12
2023-04-09T16:10:15.732Z,48.86
2023-04-09T16:12:47.376Z,48.75
2023-04-09T16:15:18.932Z,48.54
2023-04-09T16:17:50.562Z,48.79
2023-04-09T16:20:22.069Z,48.96
2023-04-09T16:22:53.641Z,48.73
2023-04-09T16:25:25.233Z,48.90
2023-04-09T16:27:57.089Z,48.81
2023-04-09T16:30:29.593Z,48.86
2023-04-09T16:33:02.233Z,49.47
2023-04-09T16:35:38.871Z,49.75
2023-04-09T16:38:11.704Z,50.44
2023-04-09T16:40:43.689Z,50.97
2023-04-09T16:43:15.343Z,51.09
2023-04-09T16:45:47.906Z,51.46
2023-04-09T16:48:19.594Z,51.48
2023-04-09T16:50:51.265Z,51.82
2023-04-09T16:53:22.647Z,52.21
2023-04-09T16:55:54.040Z,52.42
2023-04-09T16:58:25.378Z,52.16
2023-04-09T17:00:57.362Z,52.82
2023-04-09T17:03:28.866Z,52.87
2023-04-09T17:06:00.575Z,52.62
2023-04-09T17:08:32.462Z,53.84
2023-04-09T17:11:03.997Z,53.47
2023-04-09T17:13:36.095Z,53.14
2023-04-09T17:16:08.069Z,53.40
2023-04-09T17:18:39.539Z,53.77
2023-04-09T17:21:12.308Z,54.00
2023-04-09T17:23:44.163Z,54.17
2023-04-09T17:26:15.523Z,54.33
2023-04-09T17:28:47.146Z,54.60
2023-04-09T17:31:19.393Z,54.39
2023-04-09T17:33:51.844Z,54.74
2023-04-09T17:36:23.231Z,54.64
2023-04-09T17:38:56.735Z,55.40
2023-04-09T17:41:28.273Z,54.99
2023-04-09T17:43:59.734Z,55.53
2023-04-09T17:46:31.110Z,55.72
2023-04-09T17:49:02.530Z,55.64
2023-04-09T17:51:33.919Z,55.95
2023-04-09T17:54:05.419Z,56.21
2023-04-09T17:56:39.037Z,56.44
2023-04-09T17:59:13.362Z,56.46
2023-04-09T18:01:44.794Z,56.52
2023-04-09T18:04:16.655Z,56.43
2023-04-09T18:06:50.786Z,56.98
2023-04-09T18:09:22.394Z,56.88
2023-04-09T18:11:56.320Z,57.33
2023-04-09T18:14:27.951Z,57.60
2023-04-09T18:16:59.808Z,57.64
2023-04-09T18:19:31.566Z,57.79
2023-04-09T18:22:03.036Z,57.41
2023-04-09T18:24:34.999Z,57.83
2023-04-09T18:27:06.534Z,58.53
2023-04-09T18:29:37.930Z,58.66
2023-04-09T18:32:09.589Z,58.46
2023-04-09T18:34:41.030Z,58.85
2023-04-09T18:37:12.599Z,59.36
2023-04-09T18:39:44.650Z,59.01
2023-04-09T18:42:16.431Z,59.70
2023-04-09T18:44:47.875Z,59.43
2023-04-09T18:47:19.636Z,59.57
2023-04-09T18:49:51.755Z,59.84
2023-04-09T18:52:23.171Z,59.60
2023-04-09T18:54:54.662Z,60.32
2023-04-09T18:57:26.289Z,60.20
2023-04-09T18:59:57.679Z,60.74
2023-04-09T19:02:29.296Z,60.80
2023-04-09T19:05:02.252Z,60.45
2023-04-09T19:07:34.022Z,60.89
2023-04-09T19:10:05.805Z,60.90
2023-04-09T19:12:37.764Z,61.20
2023-04-09T19:15:09.933Z,61.22
2023-04-09T19:17:41.363Z,61.47
2023-04-09T19:20:13.991Z,61.85
2023-04-09T19:22:49.779Z,62.01
2023-04-09T19:25:23.006Z,61.91
2023-04-09T19:27:54.600Z,62.25
2023-04-09T19:30:26.261Z,61.79
2023-04-09T19:32:57.955Z,62.61
2023-04-09T19:35:29.816Z,62.31
2023-04-09T19:38:04.659Z,62.33
2023-04-09T19:40:36.491Z,62.90
2023-04-09T19:43:08.073Z,62.97
2023-04-09T19:45:40.840Z,62.83
2023-04-09T19:48:13.024Z,63.35
2023-04-09T19:50:46.331Z,63.60
2023-04-09T19:53:18.437Z,63.38
2023-04-09T19:55:50.122Z,63.87
2023-04-09T19:58:21.554Z,64.37
2023-04-09T20:00:53.743Z,63.66
2023-04-09T20:03:25.432Z,64.18
2023-04-09T20:05:56.960Z,64.55
2023-04-09T20:08:29.428Z,64.47
2023-04-09T20:11:01.964Z,64.92
2023-04-09T20:13:33.501Z,64.64
2023-04-09T20:16:05.730Z,65.15
2023-04-09T20:18:37.044Z,65.03
2023-04-09T20:21:08.752Z,65.70
2023-04-09T20:23:41.456Z,65.82
2023-04-09T20:26:13.636Z,65.89
2023-04-09T20:28:47.471Z,65.71
2023-04-09T20:31:19.138Z,66.09
2023-04-09T20:33:50.559Z,66.63
2023-04-09T20:36:22.185Z,66.40
2023-04-09T20:38:54.394Z,66.72
2023-04-09T20:41:26.395Z,66.60
2023-04-09T20:43:58.081Z,66.90
2023-04-09T20:46:29.538Z,67.01
2023-04-09T20:49:01.548Z,67.35
2023-04-09T20:51:33.277Z,67.40
2023-04-09T20:54:04.729Z,67.43
2023-04-09T20:56:36.347Z,67.73
2023-04-09T20:59:08.393Z,68.23
2023-04-09T21:01:40.505Z,67.80
2023-04-09T21:04:12.949Z,67.76
2023-04-09T21:06:44.746Z,67.77
2023-04-09T21:09:16.162Z,68.02
2023-04-09T21:11:47.653Z,68.44
2023-04-09T21:14:19.404Z,68.23
2023-04-09T21:16:52.242Z,68.42
2023-04-09T21:19:26.349Z,68.61
2023-04-09T21:21:57.782Z,68.90
2023-04-09T21:24:33.734Z,68.71
2023-04-09T21:27:07.318Z,68.72
2023-04-09T21:29:39.085Z,69.06
2023-04-09T21:32:12.075Z,69.79
2023-04-09T21:34:43.492Z,69.43
2023-04-09T21:37:14.866Z,69.70
2023-04-09T21:39:48.137Z,69.83
2023-04-09T21:42:19.504Z,69.66
2023-04-09T21:44:51.426Z,70.08
2023-04-09T21:47:23.647Z,69.93
2023-04-09T21:49:55.658Z,69.96
2023-04-09T21:52:27.180Z,69.96
2023-04-09T21:54:58.874Z,70.20
2023-04-09T21:57:30.534Z,70.31
2023-04-09T22:00:02.290Z,70.96
2023-04-09T22:02:34.071Z,71.07
2023-04-09T22:05:06.173Z,71.09
2023-04-09T22:07:39.733Z,70.96
2023-04-09T22:10:11.284Z,71.25
2023-04-09T22:12:42.985Z,71.57
2023-04-09T22:15:15.355Z,71.35
2023-04-09T22:17:47.340Z,71.24
2023-04-09T22:20:18.788Z,71.90
2023-04-09T22:22:50.334Z,72.08
2023-04-09T22:25:22.176Z,71.90
2023-04-09T22:27:53.858Z,72.06
2023-04-09T22:30:25.855Z,72.60
2023-04-09T22:32:57.328Z,72.51
2023-04-09T22:35:28.871Z,72.39
2023-04-09T22:38:00.249Z,72.78
2023-04-09T22:40:31.736Z,73.24
2023-04-09T22:43:03.206Z,72.63
2023-04-09T22:45:34.572Z,72.94
2023-04-09T22:48:07.624Z,73.28
2023-04-09T22:50:38.956Z,73.04
2023-04-09T22:53:10.246Z,74.05
2023-04-09T22:55:41.867Z,74.12
2023-04-09T22:58:13.183Z,73.51
2023-04-09T23:00:44.614Z,73.90
2023-04-09T23:03:16.911Z,73.45
2023-04-09T23:05:48.381Z,74.14
2023-04-09T23:08:19.755Z,74.00
2023-04-09T23:10:51.156Z,74.32
2023-04-09T23:13:22.777Z,74.28
2023-04-09T23:15:54.206Z,74.46
2023-04-09T23:18:25.909Z,74.89
2023-04-09T23:20:57.270Z,74.83
2023-04-09T23:23:28.959Z,74.15
2023-04-09T23:26:00.902Z,74.49
2023-04-09T23:28:32.597Z,74.74
2023-04-09T23:31:04.101Z,74.51
2023-04-09T23:33:35.495Z,74.65
2023-04-09T23:36:07.225Z,75.22
2023-04-09T23:38:40.755Z,75.25
2023-04-09T23:41:13.931Z,75.09
2023-04-09T23:43:45.876Z,75.22
2023-04-09T23:46:17.291Z,75.46
2023-04-09T23:48:48.622Z,75.64
2023-04-09T23:51:20.736Z,75.47
2023-04-09T23:53:52.487Z,75.65
2023-04-09T23:56:25.039Z,76.07
2023-04-09T23:58:56.715Z,75.92
